createdAt,value
2018-12-17T00:02:23.825Z,96.89
2018-12-17T00:04:52.699Z,96.71
2018-12-17T00:07:21.288Z,97.15
2018-12-17T00:09:50.227Z,96.83
2018-12-17T00:12:18.809Z,97.03
2018-12-17T00:14:47.518Z,97.35
2018-12-17T00:17:16.092Z,96.97
2018-12-17T00:19:44.742Z,96.51
2018-12-17T00:22:13.604Z,96.91
2018-12-17T00:24:42.127Z,96.46
2018-12-17T00:29:49.188Z,96.96
2018-12-17T00:32:17.738Z,96.46
2018-12-17T00:34:46.526Z,96.30
2018-12-17T00:37:15.087Z,95.94
2018-12-17T00:39:44.327Z,96.26
2018-12-17T00:42:12.927Z,95.75
2018-12-17T00:44:41.911Z,95.83
2018-12-17T00:47:10.472Z,95.31
2018-12-17T00:49:39.081Z,96.13
2018-12-17T00:52:07.685Z,95.95
2018-12-17T00:54:36.240Z,95.82
2018-12-17T00:57:04.998Z,95.70
2018-12-17T00:59:33.612Z,95.77
2018-12-17T01:02:02.574Z,95.81
2018-12-17T01:04:31.422Z,96.04
2018-12-17T01:07:00.127Z,96.43
2018-12-17T01:09:28.691Z,96.17
2018-12-17T01:11:57.214Z,96.33
2018-12-17T01:14:25.918Z,96.57
2018-12-17T01:16:54.466Z,96.80
2018-12-17T01:19:23.408Z,96.98
2018-12-17T01:21:52.234Z,96.63
2018-12-17T01:24:21.181Z,96.89
2018-12-17T01:26:49.847Z,96.84
2018-12-17T01:29:18.499Z,97.02
2018-12-17T01:31:47.015Z,97.06
2018-12-17T01:34:15.537Z,97.02
2018-12-17T01:36:44.307Z,97.05
2018-12-17T01:39:12.829Z,97.27
2018-12-17T01:41:41.650Z,97.26
2018-12-17T01:44:10.199Z,97.66
2018-12-17T01:46:39.037Z,97.45
2018-12-17T01:49:07.650Z,97.44
2018-12-17T01:51:36.283Z,97.44
2018-12-17T01:54:04.892Z,97.98
2018-12-17T01:56:33.422Z,98.34
2018-12-17T01:59:02.470Z,98.36
2018-12-17T02:01:31.438Z,97.86
2018-12-17T02:04:00.372Z,97.70
2018-12-17T02:06:29.068Z,97.78
2018-12-17T02:08:57.724Z,97.83
2018-12-17T02:11:26.248Z,97.95
2018-12-17T02:13:54.919Z,98.00
2018-12-17T02:16:23.703Z,97.88
2018-12-17T02:18:52.231Z,97.95
2018-12-17T02:21:21.303Z,97.94
2018-12-17T02:23:49.938Z,97.75
2018-12-17T02:26:19.664Z,97.78
2018-12-17T02:28:48.181Z,97.66
2018-12-17T02:31:17.025Z,97.80
2018-12-17T02:33:45.703Z,97.57
2018-12-17T02:36:14.287Z,97.66
2018-12-17T02:38:42.984Z,97.61
2018-12-17T02:41:11.494Z,97.75
2018-12-17T02:43:40.370Z,97.62
2018-12-17T02:46:08.916Z,97.81
2018-12-17T02:48:37.805Z,97.69
2018-12-17T02:51:06.393Z,97.99
2018-12-17T02:53:36.198Z,97.75
2018-12-17T02:56:05.083Z,97.76
2018-12-17T02:58:33.715Z,97.53
2018-12-17T03:01:02.274Z,97.60
2018-12-17T03:03:30.844Z,97.68
2018-12-17T03:05:59.931Z,97.05
2018-12-17T03:08:28.472Z,97.58
2018-12-17T03:10:57.213Z,97.94
2018-12-17T03:13:25.875Z,97.80
2018-12-17T03:15:54.525Z,98.43
2018-12-17T03:18:23.106Z,98.08
2018-12-17T03:20:51.761Z,97.98
2018-12-17T03:23:20.498Z,97.98
2018-12-17T03:25:49.055Z,97.98
2018-12-17T03:28:18.001Z,97.40
2018-12-17T03:30:46.524Z,97.49
2018-12-17T03:33:15.285Z,97.52
2018-12-17T03:35:43.941Z,97.43
2018-12-17T03:38:12.540Z,97.06
2018-12-17T03:40:41.109Z,97.05
2018-12-17T03:43:09.730Z,96.97
2018-12-17T03:45:38.696Z,96.79
2018-12-17T03:48:07.247Z,96.66
2018-12-17T03:50:36.173Z,96.79
2018-12-17T03:53:04.703Z,96.62
2018-12-17T03:55:33.275Z,96.55
2018-12-17T03:58:01.916Z,96.29
2018-12-17T04:00:30.496Z,96.22
2018-12-17T04:02:59.338Z,96.27
2018-12-17T04:05:28.080Z,96.18
2018-12-17T04:07:57.374Z,96.36
2018-12-17T04:10:25.955Z,96.35
2018-12-17T04:12:54.868Z,96.07
2018-12-17T04:15:23.860Z,95.93
2018-12-17T04:17:52.434Z,96.03
2018-12-17T04:20:21.005Z,96.10
2018-12-17T04:22:49.484Z,96.10
2018-12-17T04:25:18.791Z,96.62
2018-12-17T04:27:47.475Z,96.40
2018-12-17T04:30:17.053Z,96.49
2018-12-17T04:32:45.603Z,96.32
2018-12-17T04:35:14.598Z,96.13
2018-12-17T04:37:43.157Z,96.33
2018-12-17T04:40:11.823Z,96.63
2018-12-17T04:42:40.536Z,96.39
2018-12-17T04:45:09.132Z,96.18
2018-12-17T04:47:37.764Z,96.54
2018-12-17T04:50:06.659Z,96.23
2018-12-17T04:52:35.521Z,96.48
2018-12-17T04:55:04.370Z,96.54
2018-12-17T05:00:13.281Z,96.18
2018-12-17T05:02:41.987Z,96.42
2018-12-17T05:05:10.582Z,96.72
2018-12-17T05:07:39.094Z,96.55
2018-12-17T05:10:08.199Z,96.81
2018-12-17T05:12:36.720Z,96.79
2018-12-17T05:15:06.231Z,97.19
2018-12-17T05:17:34.879Z,97.11
2018-12-17T05:20:03.636Z,97.39
2018-12-17T05:22:32.184Z,97.15
2018-12-17T05:25:00.808Z,97.45
2018-12-17T05:27:29.425Z,97.54
2018-12-17T05:29:58.011Z,98.24
2018-12-17T05:32:26.910Z,98.50
2018-12-17T05:34:55.496Z,98.89
2018-12-17T05:40:02.943Z,99.30
2018-12-17T05:42:31.479Z,99.23
2018-12-17T05:45:00.186Z,99.40
2018-12-17T05:47:28.791Z,99.13
2018-12-17T05:49:57.696Z,98.82
2018-12-17T05:52:26.236Z,99.12
2018-12-17T05:54:54.884Z,99.10
2018-12-17T05:57:23.797Z,99.32
2018-12-17T05:59:53.193Z,99.35
2018-12-17T06:02:22.756Z,98.89
2018-12-17T06:04:52.517Z,98.99
2018-12-17T06:07:23.371Z,99.58
2018-12-17T06:09:54.258Z,99.57
2018-12-17T06:12:26.779Z,99.77
2018-12-17T06:14:57.148Z,99.41
2018-12-17T06:17:26.462Z,99.63
2018-12-17T06:19:55.173Z,99.76
2018-12-17T06:22:26.481Z,99.40
2018-12-17T06:24:56.585Z,99.26
2018-12-17T06:27:25.311Z,99.28
2018-12-17T06:29:56.007Z,99.52
2018-12-17T06:32:25.441Z,99.10
2018-12-17T06:34:57.359Z,98.98
2018-12-17T06:37:26.926Z,98.82
2018-12-17T06:39:55.555Z,98.77
2018-12-17T06:42:25.772Z,98.65
2018-12-17T06:44:55.685Z,98.44
2018-12-17T06:47:26.319Z,98.38
2018-12-17T06:49:56.197Z,98.60
2018-12-17T06:52:25.012Z,98.72
2018-12-17T06:54:54.896Z,98.75
2018-12-17T06:57:23.983Z,98.57
2018-12-17T06:59:52.532Z,98.59
2018-12-17T07:02:21.836Z,98.42
2018-12-17T07:04:50.439Z,98.54
2018-12-17T07:07:20.347Z,98.53
2018-12-17T07:09:50.073Z,98.78
2018-12-17T07:12:19.885Z,98.57
2018-12-17T07:14:49.095Z,98.81
2018-12-17T07:17:19.713Z,98.48
2018-12-17T07:19:49.266Z,98.75
2018-12-17T07:22:18.408Z,99.08
2018-12-17T07:24:47.978Z,98.91
2018-12-17T07:27:17.742Z,98.74
2018-12-17T07:29:49.906Z,98.73
2018-12-17T07:32:18.680Z,98.89
2018-12-17T07:34:48.370Z,98.44
2018-12-17T07:37:17.700Z,98.67
2018-12-17T07:39:46.645Z,98.47
2018-12-17T07:42:15.299Z,98.64
2018-12-17T07:44:44.034Z,98.67
2018-12-17T07:47:12.962Z,98.60
2018-12-17T07:49:43.115Z,98.71
2018-12-17T07:52:13.151Z,98.79
2018-12-17T07:57:02.710Z,98.65
2018-12-17T08:02:10.864Z,98.52
2018-12-17T08:04:39.393Z,98.46
2018-12-17T08:07:08.280Z,98.40
2018-12-17T08:09:36.894Z,98.45
2018-12-17T08:12:05.841Z,98.16
2018-12-17T08:14:34.520Z,98.09
2018-12-17T08:17:03.785Z,97.95
2018-12-17T08:19:32.334Z,97.94
2018-12-17T08:22:01.015Z,98.04
2018-12-17T08:24:31.189Z,97.89
2018-12-17T08:27:00.208Z,97.84
2018-12-17T08:29:28.823Z,97.89
2018-12-17T08:31:57.418Z,97.65
2018-12-17T08:34:27.127Z,97.66
2018-12-17T08:36:55.848Z,97.69
2018-12-17T08:39:24.943Z,97.41
2018-12-17T08:41:53.549Z,97.45
2018-12-17T08:44:22.322Z,97.58
2018-12-17T08:46:51.020Z,97.39
2018-12-17T08:49:20.284Z,97.26
2018-12-17T08:51:48.934Z,97.13
2018-12-17T08:54:17.563Z,97.11
2018-12-17T08:56:46.731Z,97.39
2018-12-17T08:59:15.369Z,97.32
2018-12-17T09:01:44.463Z,97.41
2018-12-17T09:04:13.155Z,97.39
2018-12-17T09:06:42.254Z,97.47
2018-12-17T09:09:11.031Z,97.46
2018-12-17T09:11:40.335Z,97.78
2018-12-17T09:14:09.383Z,97.48
2018-12-17T09:16:38.411Z,97.71
2018-12-17T09:19:06.980Z,97.74
2018-12-17T09:21:37.076Z,97.51
2018-12-17T09:24:05.756Z,97.44
2018-12-17T09:26:34.742Z,97.12
2018-12-17T09:29:03.487Z,97.17
2018-12-17T09:31:32.019Z,97.00
2018-12-17T09:34:00.953Z,96.67
2018-12-17T09:36:29.553Z,96.46
2018-12-17T09:38:58.627Z,96.67
2018-12-17T09:41:27.448Z,96.55
2018-12-17T09:43:56.222Z,96.35
2018-12-17T09:46:24.892Z,96.40
2018-12-17T09:48:53.610Z,96.20
2018-12-17T09:54:00.094Z,96.03
2018-12-17T09:56:28.672Z,95.93
2018-12-17T09:58:58.160Z,95.97
2018-12-17T10:01:26.715Z,96.23
2018-12-17T10:03:55.473Z,95.90
2018-12-17T10:06:24.204Z,95.82
2018-12-17T10:11:32.264Z,95.84
2018-12-17T10:14:00.836Z,95.39
2018-12-17T10:16:29.504Z,95.08
2018-12-17T10:18:58.178Z,95.50
2018-12-17T10:21:27.315Z,95.20
2018-12-17T10:23:56.171Z,95.16
2018-12-17T10:26:25.157Z,94.67
2018-12-17T10:28:53.718Z,94.88
2018-12-17T10:31:22.296Z,94.85
2018-12-17T10:33:50.904Z,94.92
2018-12-17T10:36:19.487Z,94.93
2018-12-17T10:38:48.243Z,95.21
2018-12-17T10:41:16.916Z,95.19
2018-12-17T10:43:45.770Z,94.78
2018-12-17T10:46:14.552Z,95.23
2018-12-17T10:48:43.335Z,94.67
2018-12-17T10:51:11.918Z,95.49
2018-12-17T10:53:40.568Z,95.48
2018-12-17T10:56:09.940Z,95.42
2018-12-17T10:58:38.762Z,95.68
2018-12-17T11:01:12.730Z,95.09
2018-12-17T11:03:48.420Z,96.05
2018-12-17T11:06:21.916Z,95.97
2018-12-17T11:08:51.180Z,95.78
2018-12-17T11:11:19.734Z,96.39
2018-12-17T11:13:48.298Z,96.36
2018-12-17T11:16:17.130Z,96.30
2018-12-17T11:18:45.698Z,96.08
2018-12-17T11:21:14.515Z,95.91
2018-12-17T11:23:44.886Z,95.71
2018-12-17T11:26:13.882Z,96.29
2018-12-17T11:28:42.399Z,95.86
2018-12-17T11:31:11.138Z,96.05
2018-12-17T11:33:39.729Z,95.89
2018-12-17T11:36:08.255Z,95.78
2018-12-17T11:38:36.843Z,95.71
2018-12-17T11:41:05.478Z,95.72
2018-12-17T11:43:34.332Z,95.72
2018-12-17T11:46:07.095Z,95.79
2018-12-17T11:48:35.730Z,95.49
2018-12-17T11:51:04.431Z,95.56
2018-12-17T11:53:33.203Z,95.92
2018-12-17T11:56:01.891Z,95.70
2018-12-17T11:58:30.776Z,95.45
2018-12-17T12:01:03.003Z,95.57
2018-12-17T12:03:32.981Z,95.50
2018-12-17T12:06:01.691Z,95.49
2018-12-17T12:08:30.539Z,95.40
2018-12-17T12:10:59.225Z,95.46
2018-12-17T12:13:28.285Z,95.21
2018-12-17T12:15:56.843Z,95.44
2018-12-17T12:18:25.638Z,95.39
2018-12-17T12:20:54.471Z,95.59
2018-12-17T12:23:23.146Z,95.51
2018-12-17T12:25:51.754Z,95.65
2018-12-17T12:28:20.351Z,95.57
2018-12-17T12:30:49.087Z,95.66
2018-12-17T12:33:17.696Z,95.46
2018-12-17T12:35:46.429Z,95.67
2018-12-17T12:38:15.002Z,95.52
2018-12-17T12:40:43.855Z,95.67
2018-12-17T12:43:12.522Z,95.73
2018-12-17T12:45:41.251Z,95.67
2018-12-17T12:48:09.921Z,95.43
2018-12-17T12:50:38.799Z,95.60
2018-12-17T12:53:07.792Z,95.77
2018-12-17T12:55:36.477Z,95.92
2018-12-17T12:58:05.632Z,95.78
2018-12-17T13:00:34.252Z,95.71
2018-12-17T13:03:03.215Z,95.54
2018-12-17T13:05:31.869Z,95.52
2018-12-17T13:08:00.748Z,95.32
2018-12-17T13:10:29.413Z,95.41
2018-12-17T13:12:58.166Z,95.54
2018-12-17T13:15:27.356Z,95.43
2018-12-17T13:17:55.975Z,95.61
2018-12-17T13:20:24.666Z,95.54
2018-12-17T13:22:53.242Z,95.60
2018-12-17T13:25:39.745Z,95.72
2018-12-17T13:28:11.528Z,95.63
2018-12-17T13:30:40.106Z,95.37
2018-12-17T13:33:08.818Z,94.88
2018-12-17T13:35:37.669Z,94.57
2018-12-17T13:38:06.691Z,94.71
2018-12-17T13:40:35.926Z,94.69
2018-12-17T13:43:05.006Z,94.92
2018-12-17T13:45:34.247Z,94.83
2018-12-17T13:50:41.495Z,95.48
2018-12-17T13:53:15.610Z,95.23
2018-12-17T13:55:45.560Z,95.23
2018-12-17T13:58:14.387Z,95.20
2018-12-17T14:00:43.252Z,95.29
2018-12-17T14:03:11.889Z,95.43
2018-12-17T14:05:40.894Z,95.29
2018-12-17T14:08:09.620Z,95.33
2018-12-17T14:10:43.614Z,95.54
2018-12-17T14:13:12.247Z,95.45
2018-12-17T14:15:46.286Z,95.47
2018-12-17T14:18:20.094Z,95.69
2018-12-17T14:20:53.831Z,95.93
2018-12-17T14:23:22.478Z,96.10
2018-12-17T14:25:51.375Z,96.12
2018-12-17T14:28:19.994Z,96.45
2018-12-17T14:30:48.940Z,96.17
2018-12-17T14:33:17.481Z,96.54
2018-12-17T14:35:51.415Z,96.47
2018-12-17T14:38:20.070Z,96.33
2018-12-17T14:40:48.989Z,96.38
2018-12-17T14:43:17.568Z,96.62
2018-12-17T14:45:46.241Z,96.61
2018-12-17T14:48:15.412Z,96.58
2018-12-17T14:50:44.347Z,96.38
2018-12-17T14:53:12.916Z,96.61
2018-12-17T14:55:41.517Z,96.73
2018-12-17T14:58:10.257Z,96.70
2018-12-17T15:00:38.842Z,96.81
2018-12-17T15:03:07.698Z,96.82
2018-12-17T15:05:36.447Z,96.68
2018-12-17T15:08:05.332Z,97.13
2018-12-17T15:10:33.919Z,97.11
2018-12-17T15:13:02.678Z,97.09
2018-12-17T15:15:31.255Z,97.00
2018-12-17T15:17:59.821Z,96.73
2018-12-17T15:20:28.854Z,96.92
2018-12-17T15:22:57.423Z,96.77
2018-12-17T15:25:26.316Z,97.08
2018-12-17T15:27:54.882Z,96.86
2018-12-17T15:33:02.564Z,97.05
2018-12-17T15:35:31.143Z,96.95
2018-12-17T15:37:59.827Z,96.90
2018-12-17T15:40:28.553Z,97.34
2018-12-17T15:42:57.155Z,97.13
2018-12-17T15:45:25.820Z,97.01
2018-12-17T15:47:54.395Z,97.07
2018-12-17T15:50:22.980Z,97.16
2018-12-17T15:52:51.540Z,97.42
2018-12-17T15:55:20.458Z,97.48
2018-12-17T15:57:48.991Z,97.50
2018-12-17T16:00:17.932Z,97.23
2018-12-17T16:02:46.518Z,96.99
2018-12-17T16:05:15.863Z,97.05
2018-12-17T16:07:44.548Z,97.11
2018-12-17T16:10:13.331Z,96.91
2018-12-17T16:12:41.971Z,97.38
2018-12-17T16:15:10.663Z,97.19
2018-12-17T16:17:39.445Z,97.53
2018-12-17T16:20:08.338Z,97.26
2018-12-17T16:22:37.312Z,97.26
2018-12-17T16:25:06.874Z,97.35
2018-12-17T16:27:35.765Z,97.47
2018-12-17T16:30:05.547Z,97.52
2018-12-17T16:32:34.992Z,97.81
2018-12-17T16:35:03.522Z,97.10
2018-12-17T16:37:32.162Z,97.24
2018-12-17T16:40:00.878Z,97.19
2018-12-17T16:42:29.492Z,97.15
2018-12-17T16:44:58.312Z,97.43
2018-12-17T16:47:27.051Z,97.56
2018-12-17T16:49:56.058Z,97.57
2018-12-17T16:52:24.661Z,97.48
2018-12-17T16:54:53.970Z,97.20
2018-12-17T16:57:22.726Z,97.55
2018-12-17T16:59:51.459Z,97.11
2018-12-17T17:02:20.073Z,97.06
2018-12-17T17:04:48.662Z,97.08
2018-12-17T17:07:17.390Z,97.17
2018-12-17T17:09:46.168Z,97.11
2018-12-17T17:12:15.229Z,97.00
2018-12-17T17:14:43.815Z,96.88
2018-12-17T17:17:12.950Z,96.80
2018-12-17T17:19:41.592Z,96.75
2018-12-17T17:22:10.187Z,96.47
2018-12-17T17:24:38.793Z,96.46
2018-12-17T17:27:07.363Z,96.27
2018-12-17T17:29:36.124Z,96.21
2018-12-17T17:32:11.390Z,96.37
2018-12-17T17:34:35.529Z,96.34
2018-12-17T17:37:04.168Z,96.70
2018-12-17T17:39:33.251Z,96.62
2018-12-17T17:42:02.015Z,96.80
2018-12-17T17:44:30.995Z,96.60
2018-12-17T17:46:59.708Z,96.66
2018-12-17T17:49:28.689Z,96.38
2018-12-17T17:51:57.476Z,96.53
2018-12-17T17:54:26.607Z,96.47
2018-12-17T17:56:55.354Z,96.79
2018-12-17T17:59:24.049Z,96.67
2018-12-17T18:01:52.836Z,96.79
2018-12-17T18:04:21.419Z,96.84
2018-12-17T18:06:50.256Z,96.64
2018-12-17T18:09:18.990Z,97.01
2018-12-17T18:11:47.765Z,96.79
2018-12-17T18:14:25.730Z,96.49
2018-12-17T18:19:43.935Z,96.89
2018-12-17T18:22:14.279Z,96.90
2018-12-17T18:24:48.340Z,96.76
2018-12-17T18:27:17.127Z,97.10
2018-12-17T18:29:46.957Z,96.79
2018-12-17T18:32:17.197Z,96.92
2018-12-17T18:34:50.515Z,97.07
2018-12-17T18:37:20.960Z,97.21
2018-12-17T18:39:49.710Z,97.42
2018-12-17T18:42:18.545Z,97.36
2018-12-17T18:44:47.487Z,97.50
2018-12-17T18:47:16.123Z,97.32
2018-12-17T18:49:45.295Z,97.31
2018-12-17T18:52:13.936Z,97.26
2018-12-17T18:57:21.792Z,96.91
2018-12-17T18:59:50.471Z,97.05
2018-12-17T19:02:19.540Z,96.57
2018-12-17T19:04:48.531Z,96.69
2018-12-17T19:07:18.082Z,96.51
2018-12-17T19:09:46.723Z,96.55
2018-12-17T19:12:15.501Z,96.50
2018-12-17T19:14:44.319Z,96.28
2018-12-17T19:17:13.603Z,96.48
2018-12-17T19:19:44.065Z,97.00
2018-12-17T19:22:12.751Z,96.83
2018-12-17T19:24:41.604Z,96.47
2018-12-17T19:27:10.322Z,96.45
2018-12-17T19:29:39.078Z,96.73
2018-12-17T19:32:07.754Z,96.58
2018-12-17T19:34:36.675Z,96.48
2018-12-17T19:37:05.413Z,96.39
2018-12-17T19:39:34.616Z,96.55
2018-12-17T19:42:03.623Z,96.61
2018-12-17T19:44:32.433Z,96.58
2018-12-17T19:49:39.479Z,97.16
2018-12-17T19:52:08.449Z,96.98
2018-12-17T19:54:37.064Z,97.18
2018-12-17T19:57:05.703Z,96.88
2018-12-17T19:59:34.561Z,96.89
2018-12-17T20:02:03.258Z,97.09
2018-12-17T20:04:31.925Z,96.89
2018-12-17T20:07:00.632Z,97.05
2018-12-17T20:09:29.399Z,97.32
2018-12-17T20:11:57.982Z,97.07
2018-12-17T20:14:26.847Z,97.46
2018-12-17T20:16:55.360Z,97.28
2018-12-17T20:19:23.983Z,97.45
2018-12-17T20:21:52.694Z,97.70
2018-12-17T20:24:21.306Z,97.62
2018-12-17T20:26:50.280Z,97.68
2018-12-17T20:29:18.899Z,97.53
2018-12-17T20:31:47.659Z,97.60
2018-12-17T20:34:16.288Z,97.63
2018-12-17T20:36:45.206Z,97.65
2018-12-17T20:39:13.943Z,97.30
2018-12-17T20:41:42.663Z,97.40
2018-12-17T20:44:11.312Z,97.33
2018-12-17T20:46:39.912Z,97.16
2018-12-17T20:49:09.018Z,96.75
2018-12-17T20:51:37.723Z,97.05
2018-12-17T20:54:06.634Z,97.50
2018-12-17T20:56:35.276Z,97.28
2018-12-17T20:59:04.294Z,97.40
2018-12-17T21:01:32.971Z,97.65
2018-12-17T21:04:01.625Z,97.55
2018-12-17T21:06:30.243Z,97.67
2018-12-17T21:08:58.820Z,97.66
2018-12-17T21:14:06.827Z,97.38
2018-12-17T21:16:35.651Z,97.32
2018-12-17T21:19:04.360Z,97.36
2018-12-17T21:21:34.009Z,97.49
2018-12-17T21:24:02.883Z,97.33
2018-12-17T21:26:31.544Z,97.44
2018-12-17T21:29:00.389Z,97.50
2018-12-17T21:31:28.969Z,97.33
2018-12-17T21:33:57.842Z,97.30
2018-12-17T21:36:26.587Z,97.09
2018-12-17T21:38:55.201Z,96.97
2018-12-17T21:41:23.830Z,96.95
2018-12-17T21:43:52.448Z,97.03
2018-12-17T21:46:21.540Z,97.33
2018-12-17T21:48:50.190Z,97.17
2018-12-17T21:51:19.317Z,97.53
2018-12-17T21:53:47.905Z,97.33
2018-12-17T21:56:16.668Z,97.41
2018-12-17T21:58:45.283Z,97.59
2018-12-17T22:01:13.956Z,97.54
2018-12-17T22:03:42.731Z,97.81
2018-12-17T22:06:11.352Z,97.73
2018-12-17T22:08:40.403Z,97.39
2018-12-17T22:11:09.106Z,97.56
2018-12-17T22:13:38.859Z,97.29
2018-12-17T22:16:07.603Z,97.31
2018-12-17T22:18:36.499Z,97.42
2018-12-17T22:21:05.194Z,97.42
2018-12-17T22:23:34.001Z,97.55
2018-12-17T22:26:02.730Z,97.87
2018-12-17T22:28:31.389Z,97.86
2018-12-17T22:31:00.022Z,97.96
2018-12-17T22:33:28.694Z,97.60
2018-12-17T22:35:57.630Z,97.70
2018-12-17T22:38:26.198Z,97.52
2018-12-17T22:40:55.276Z,97.77
2018-12-17T22:43:23.961Z,97.57
2018-12-17T22:45:52.715Z,97.56
2018-12-17T22:48:21.427Z,97.43
2018-12-17T22:50:50.239Z,97.47
2018-12-17T22:53:18.857Z,97.46
2018-12-17T22:55:47.464Z,97.52
2018-12-17T22:58:16.363Z,97.40
2018-12-17T23:00:45.824Z,97.71
2018-12-17T23:03:14.779Z,97.69
2018-12-17T23:05:43.355Z,97.39
2018-12-17T23:08:12.280Z,97.20
2018-12-17T23:10:52.025Z,97.21
2018-12-17T23:13:31.703Z,97.13
2018-12-17T23:16:11.582Z,96.89
2018-12-17T23:18:38.966Z,97.00
2018-12-17T23:21:07.538Z,96.69
2018-12-17T23:23:36.554Z,96.66
2018-12-17T23:26:05.293Z,96.33
2018-12-17T23:28:34.058Z,96.41
2018-12-17T23:31:02.712Z,95.99
2018-12-17T23:33:33.039Z,95.98
2018-12-17T23:36:01.754Z,96.08
2018-12-17T23:38:30.311Z,96.22
2018-12-17T23:40:58.971Z,96.33
2018-12-17T23:43:27.630Z,96.35
2018-12-17T23:45:56.350Z,96.34
2018-12-17T23:48:24.902Z,96.24
2018-12-17T23:50:53.767Z,96.22
2018-12-17T23:53:22.431Z,96.44
2018-12-17T23:55:51.064Z,96.73
2018-12-17T23:58:19.715Z,96.32
